sensor_id;sensor_type;location;lat;lon;timestamp;temperature;humidity
6206;DHT22;3136;48.788;9.772;2023-06-26T00:00:52;15.10;75.90
6206;DHT22;3136;48.788;9.772;2023-06-26T00:03:17;15.10;76.30
6206;DHT22;3136;48.788;9.772;2023-06-26T00:05:43;15.10;78.60
6206;DHT22;3136;48.788;9.772;2023-06-26T00:08:09;15.00;78.70
6206;DHT22;3136;48.788;9.772;2023-06-26T00:10:34;15.00;81.10
6206;DHT22;3136;48.788;9.772;2023-06-26T00:13:00;15.00;82.10
6206;DHT22;3136;48.788;9.772;2023-06-26T00:15:27;15.00;82.60
6206;DHT22;3136;48.788;9.772;2023-06-26T00:17:57;14.90;83.60
6206;DHT22;3136;48.788;9.772;2023-06-26T00:20:22;14.90;84.60
6206;DHT22;3136;48.788;9.772;2023-06-26T00:22:50;15.00;88.30
6206;DHT22;3136;48.788;9.772;2023-06-26T00:25:16;14.90;87.10
6206;DHT22;3136;48.788;9.772;2023-06-26T00:27:41;14.90;89.40
6206;DHT22;3136;48.788;9.772;2023-06-26T00:30:08;14.90;88.70
6206;DHT22;3136;48.788;9.772;2023-06-26T00:32:34;14.80;89.80
6206;DHT22;3136;48.788;9.772;2023-06-26T00:34:59;14.80;90.00
6206;DHT22;3136;48.788;9.772;2023-06-26T00:37:25;14.60;91.30
6206;DHT22;3136;48.788;9.772;2023-06-26T00:39:50;14.70;90.90
6206;DHT22;3136;48.788;9.772;2023-06-26T00:42:16;14.70;91.60
6206;DHT22;3136;48.788;9.772;2023-06-26T00:44:41;14.70;92.40
6206;DHT22;3136;48.788;9.772;2023-06-26T00:47:07;14.80;92.70
6206;DHT22;3136;48.788;9.772;2023-06-26T00:49:33;14.70;93.50
6206;DHT22;3136;48.788;9.772;2023-06-26T00:51:59;14.60;94.20
6206;DHT22;3136;48.788;9.772;2023-06-26T00:54:25;14.60;94.70
6206;DHT22;3136;48.788;9.772;2023-06-26T00:56:51;14.60;95.30
6206;DHT22;3136;48.788;9.772;2023-06-26T00:59:16;14.60;95.80
6206;DHT22;3136;48.788;9.772;2023-06-26T01:01:42;14.50;96.50
6206;DHT22;3136;48.788;9.772;2023-06-26T01:04:07;14.50;97.00
6206;DHT22;3136;48.788;9.772;2023-06-26T01:06:33;14.50;97.70
6206;DHT22;3136;48.788;9.772;2023-06-26T01:09:03;14.50;97.50
6206;DHT22;3136;48.788;9.772;2023-06-26T01:11:29;14.40;97.60
6206;DHT22;3136;48.788;9.772;2023-06-26T01:13:56;14.40;98.10
6206;DHT22;3136;48.788;9.772;2023-06-26T01:16:23;14.40;99.80
6206;DHT22;3136;48.788;9.772;2023-06-26T01:18:50;14.40;98.90
6206;DHT22;3136;48.788;9.772;2023-06-26T01:21:16;14.30;99.50
6206;DHT22;3136;48.788;9.772;2023-06-26T01:23:56;14.30;99.90
6206;DHT22;3136;48.788;9.772;2023-06-26T01:26:26;14.30;99.90
6206;DHT22;3136;48.788;9.772;2023-06-26T01:28:53;14.30;99.90
6206;DHT22;3136;48.788;9.772;2023-06-26T01:31:21;14.20;99.90
6206;DHT22;3136;48.788;9.772;2023-06-26T01:33:47;14.20;99.90
6206;DHT22;3136;48.788;9.772;2023-06-26T01:36:12;14.20;99.90
6206;DHT22;3136;48.788;9.772;2023-06-26T01:38:38;14.10;99.90
6206;DHT22;3136;48.788;9.772;2023-06-26T01:41:05;14.00;99.90
6206;DHT22;3136;48.788;9.772;2023-06-26T01:43:43;14.10;99.90
6206;DHT22;3136;48.788;9.772;2023-06-26T01:46:21;14.00;99.90
6206;DHT22;3136;48.788;9.772;2023-06-26T01:49:13;13.90;99.90
6206;DHT22;3136;48.788;9.772;2023-06-26T01:51:46;13.90;99.90
6206;DHT22;3136;48.788;9.772;2023-06-26T01:54:18;14.00;99.90
6206;DHT22;3136;48.788;9.772;2023-06-26T01:56:48;14.00;99.90
6206;DHT22;3136;48.788;9.772;2023-06-26T01:59:14;13.80;99.90
6206;DHT22;3136;48.788;9.772;2023-06-26T02:01:40;13.80;99.90
6206;DHT22;3136;48.788;9.772;2023-06-26T02:04:06;13.80;99.90
6206;DHT22;3136;48.788;9.772;2023-06-26T02:06:31;13.80;99.90
6206;DHT22;3136;48.788;9.772;2023-06-26T02:08:57;13.70;99.90
6206;DHT22;3136;48.788;9.772;2023-06-26T02:11:23;13.70;99.90
6206;DHT22;3136;48.788;9.772;2023-06-26T02:13:48;13.70;99.90
6206;DHT22;3136;48.788;9.772;2023-06-26T02:16:14;13.70;99.90
6206;DHT22;3136;48.788;9.772;2023-06-26T02:18:39;13.70;99.90
6206;DHT22;3136;48.788;9.772;2023-06-26T02:21:06;13.60;99.90
6206;DHT22;3136;48.788;9.772;2023-06-26T02:23:32;13.60;99.90
6206;DHT22;3136;48.788;9.772;2023-06-26T02:25:57;13.60;99.90
6206;DHT22;3136;48.788;9.772;2023-06-26T02:28:23;13.60;99.90
6206;DHT22;3136;48.788;9.772;2023-06-26T02:30:48;13.50;99.90
6206;DHT22;3136;48.788;9.772;2023-06-26T02:33:14;13.50;99.90
6206;DHT22;3136;48.788;9.772;2023-06-26T02:35:39;13.50;99.90
6206;DHT22;3136;48.788;9.772;2023-06-26T02:38:05;13.60;99.90
6206;DHT22;3136;48.788;9.772;2023-06-26T02:40:30;13.40;99.90
6206;DHT22;3136;48.788;9.772;2023-06-26T02:42:56;13.40;99.90
6206;DHT22;3136;48.788;9.772;2023-06-26T02:45:21;13.40;99.90
6206;DHT22;3136;48.788;9.772;2023-06-26T02:47:47;13.40;99.90
6206;DHT22;3136;48.788;9.772;2023-06-26T02:50:12;13.40;99.90
6206;DHT22;3136;48.788;9.772;2023-06-26T02:52:38;13.30;99.90
6206;DHT22;3136;48.788;9.772;2023-06-26T02:55:04;13.30;99.90
6206;DHT22;3136;48.788;9.772;2023-06-26T02:57:30;13.30;99.90
6206;DHT22;3136;48.788;9.772;2023-06-26T02:59:56;13.30;99.90
6206;DHT22;3136;48.788;9.772;2023-06-26T03:02:21;13.30;99.90
6206;DHT22;3136;48.788;9.772;2023-06-26T03:04:47;13.20;99.90
6206;DHT22;3136;48.788;9.772;2023-06-26T03:07:13;13.20;99.90
6206;DHT22;3136;48.788;9.772;2023-06-26T03:09:38;13.20;99.90
6206;DHT22;3136;48.788;9.772;2023-06-26T03:12:04;13.20;99.90
6206;DHT22;3136;48.788;9.772;2023-06-26T03:14:30;13.20;99.90
6206;DHT22;3136;48.788;9.772;2023-06-26T03:16:57;13.20;99.90
6206;DHT22;3136;48.788;9.772;2023-06-26T03:19:23;13.20;99.90
6206;DHT22;3136;48.788;9.772;2023-06-26T03:21:49;13.20;99.90
6206;DHT22;3136;48.788;9.772;2023-06-26T03:24:14;13.10;99.90
6206;DHT22;3136;48.788;9.772;2023-06-26T03:26:40;13.10;99.90
6206;DHT22;3136;48.788;9.772;2023-06-26T03:29:05;13.10;99.90
6206;DHT22;3136;48.788;9.772;2023-06-26T03:31:31;13.10;99.90
6206;DHT22;3136;48.788;9.772;2023-06-26T03:33:56;13.10;99.90
6206;DHT22;3136;48.788;9.772;2023-06-26T03:36:22;13.20;99.90
6206;DHT22;3136;48.788;9.772;2023-06-26T03:38:59;13.10;99.90
6206;DHT22;3136;48.788;9.772;2023-06-26T03:41:34;13.10;99.90
6206;DHT22;3136;48.788;9.772;2023-06-26T03:43:59;13.10;99.90
6206;DHT22;3136;48.788;9.772;2023-06-26T03:46:26;13.10;99.90
6206;DHT22;3136;48.788;9.772;2023-06-26T03:48:51;13.10;99.90
6206;DHT22;3136;48.788;9.772;2023-06-26T03:51:17;13.00;99.90
6206;DHT22;3136;48.788;9.772;2023-06-26T03:53:43;13.10;99.90
6206;DHT22;3136;48.788;9.772;2023-06-26T03:56:08;13.10;99.90
6206;DHT22;3136;48.788;9.772;2023-06-26T03:58:34;13.10;99.90
6206;DHT22;3136;48.788;9.772;2023-06-26T04:00:59;13.40;99.90
6206;DHT22;3136;48.788;9.772;2023-06-26T04:03:25;13.20;99.90
6206;DHT22;3136;48.788;9.772;2023-06-26T04:05:51;13.20;99.90
6206;DHT22;3136;48.788;9.772;2023-06-26T04:08:17;13.30;99.90
6206;DHT22;3136;48.788;9.772;2023-06-26T04:10:42;13.40;99.90
6206;DHT22;3136;48.788;9.772;2023-06-26T04:13:10;13.30;99.90
6206;DHT22;3136;48.788;9.772;2023-06-26T04:15:36;13.40;99.90
6206;DHT22;3136;48.788;9.772;2023-06-26T04:18:02;13.40;99.90
6206;DHT22;3136;48.788;9.772;2023-06-26T04:20:28;13.50;99.90
6206;DHT22;3136;48.788;9.772;2023-06-26T04:22:54;13.50;99.90
6206;DHT22;3136;48.788;9.772;2023-06-26T04:25:19;13.50;99.90
6206;DHT22;3136;48.788;9.772;2023-06-26T04:27:45;13.60;99.90
6206;DHT22;3136;48.788;9.772;2023-06-26T04:30:11;13.70;99.90
6206;DHT22;3136;48.788;9.772;2023-06-26T04:32:37;13.70;99.90
6206;DHT22;3136;48.788;9.772;2023-06-26T04:35:03;13.80;99.90
6206;DHT22;3136;48.788;9.772;2023-06-26T04:37:28;13.90;99.90
6206;DHT22;3136;48.788;9.772;2023-06-26T04:39:54;14.00;99.90
6206;DHT22;3136;48.788;9.772;2023-06-26T04:42:19;14.00;99.90
6206;DHT22;3136;48.788;9.772;2023-06-26T04:44:47;14.10;99.90
6206;DHT22;3136;48.788;9.772;2023-06-26T04:47:12;14.20;99.90
6206;DHT22;3136;48.788;9.772;2023-06-26T04:49:40;14.30;99.90
6206;DHT22;3136;48.788;9.772;2023-06-26T04:52:08;14.40;99.90
6206;DHT22;3136;48.788;9.772;2023-06-26T04:54:34;14.50;99.90
6206;DHT22;3136;48.788;9.772;2023-06-26T04:56:59;14.60;99.90
6206;DHT22;3136;48.788;9.772;2023-06-26T04:59:25;14.70;99.90
6206;DHT22;3136;48.788;9.772;2023-06-26T05:01:50;14.80;99.90
6206;DHT22;3136;48.788;9.772;2023-06-26T05:04:16;14.90;99.90
6206;DHT22;3136;48.788;9.772;2023-06-26T05:06:42;15.00;99.90
6206;DHT22;3136;48.788;9.772;2023-06-26T05:09:07;15.00;99.90
6206;DHT22;3136;48.788;9.772;2023-06-26T05:11:33;15.00;99.90
6206;DHT22;3136;48.788;9.772;2023-06-26T05:13:59;15.30;99.90
6206;DHT22;3136;48.788;9.772;2023-06-26T05:16:24;15.20;99.90
6206;DHT22;3136;48.788;9.772;2023-06-26T05:18:50;15.40;99.90
6206;DHT22;3136;48.788;9.772;2023-06-26T05:21:16;15.50;99.90
6206;DHT22;3136;48.788;9.772;2023-06-26T05:23:42;15.60;99.90
6206;DHT22;3136;48.788;9.772;2023-06-26T05:26:09;15.70;99.90
6206;DHT22;3136;48.788;9.772;2023-06-26T05:28:36;15.80;99.90
6206;DHT22;3136;48.788;9.772;2023-06-26T05:31:02;15.90;99.90
6206;DHT22;3136;48.788;9.772;2023-06-26T05:33:30;16.00;99.90
6206;DHT22;3136;48.788;9.772;2023-06-26T05:35:56;16.20;99.90
6206;DHT22;3136;48.788;9.772;2023-06-26T05:38:22;16.30;99.90
6206;DHT22;3136;48.788;9.772;2023-06-26T05:40:48;16.40;99.90
6206;DHT22;3136;48.788;9.772;2023-06-26T05:43:14;16.50;99.90
6206;DHT22;3136;48.788;9.772;2023-06-26T05:45:46;16.60;99.90
6206;DHT22;3136;48.788;9.772;2023-06-26T05:48:12;16.70;99.90
6206;DHT22;3136;48.788;9.772;2023-06-26T05:50:38;16.90;99.90
6206;DHT22;3136;48.788;9.772;2023-06-26T05:53:04;17.00;98.10
6206;DHT22;3136;48.788;9.772;2023-06-26T05:55:31;17.10;98.10
6206;DHT22;3136;48.788;9.772;2023-06-26T05:57:58;17.20;97.20
6206;DHT22;3136;48.788;9.772;2023-06-26T06:00:25;17.40;97.00
6206;DHT22;3136;48.788;9.772;2023-06-26T06:02:51;17.50;95.50
6206;DHT22;3136;48.788;9.772;2023-06-26T06:05:22;17.80;94.20
6206;DHT22;3136;48.788;9.772;2023-06-26T06:07:48;17.80;93.80
6206;DHT22;3136;48.788;9.772;2023-06-26T06:10:14;18.00;93.00
6206;DHT22;3136;48.788;9.772;2023-06-26T06:12:39;18.10;92.90
6206;DHT22;3136;48.788;9.772;2023-06-26T06:15:05;18.30;92.20
6206;DHT22;3136;48.788;9.772;2023-06-26T06:17:31;18.50;90.80
6206;DHT22;3136;48.788;9.772;2023-06-26T06:19:57;18.60;90.70
6206;DHT22;3136;48.788;9.772;2023-06-26T06:22:22;18.80;88.60
6206;DHT22;3136;48.788;9.772;2023-06-26T06:24:49;18.90;88.00
6206;DHT22;3136;48.788;9.772;2023-06-26T06:27:16;19.00;86.50
6206;DHT22;3136;48.788;9.772;2023-06-26T06:29:41;19.20;85.70
6206;DHT22;3136;48.788;9.772;2023-06-26T06:32:07;19.40;82.80
6206;DHT22;3136;48.788;9.772;2023-06-26T06:34:33;19.60;79.40
6206;DHT22;3136;48.788;9.772;2023-06-26T06:36:58;19.90;72.10
6206;DHT22;3136;48.788;9.772;2023-06-26T06:39:24;21.20;71.00
6206;DHT22;3136;48.788;9.772;2023-06-26T06:41:49;20.30;68.70
6206;DHT22;3136;48.788;9.772;2023-06-26T06:44:15;20.60;68.10
6206;DHT22;3136;48.788;9.772;2023-06-26T06:46:40;20.90;67.60
6206;DHT22;3136;48.788;9.772;2023-06-26T06:49:06;20.80;65.90
6206;DHT22;3136;48.788;9.772;2023-06-26T06:51:31;21.00;63.30
6206;DHT22;3136;48.788;9.772;2023-06-26T06:53:57;21.20;58.80
6206;DHT22;3136;48.788;9.772;2023-06-26T06:56:22;21.40;58.10
6206;DHT22;3136;48.788;9.772;2023-06-26T06:58:48;21.70;53.40
6206;DHT22;3136;48.788;9.772;2023-06-26T07:01:14;21.90;51.30
6206;DHT22;3136;48.788;9.772;2023-06-26T07:03:39;22.00;50.90
6206;DHT22;3136;48.788;9.772;2023-06-26T07:06:05;22.30;45.50
6206;DHT22;3136;48.788;9.772;2023-06-26T07:08:30;22.60;45.30
6206;DHT22;3136;48.788;9.772;2023-06-26T07:10:56;22.80;44.50
6206;DHT22;3136;48.788;9.772;2023-06-26T07:13:22;23.00;40.60
6206;DHT22;3136;48.788;9.772;2023-06-26T07:15:48;23.20;39.40
6206;DHT22;3136;48.788;9.772;2023-06-26T07:18:14;23.40;38.60
6206;DHT22;3136;48.788;9.772;2023-06-26T07:20:39;23.50;37.20
6206;DHT22;3136;48.788;9.772;2023-06-26T07:23:05;23.70;34.10
6206;DHT22;3136;48.788;9.772;2023-06-26T07:25:30;23.80;31.90
6206;DHT22;3136;48.788;9.772;2023-06-26T07:27:56;23.90;31.30
6206;DHT22;3136;48.788;9.772;2023-06-26T07:30:22;24.10;29.70
6206;DHT22;3136;48.788;9.772;2023-06-26T07:32:48;24.20;28.10
6206;DHT22;3136;48.788;9.772;2023-06-26T07:35:13;24.30;27.60
6206;DHT22;3136;48.788;9.772;2023-06-26T07:37:39;24.50;26.00
6206;DHT22;3136;48.788;9.772;2023-06-26T07:40:06;24.70;25.00
6206;DHT22;3136;48.788;9.772;2023-06-26T07:42:32;24.80;24.70
6206;DHT22;3136;48.788;9.772;2023-06-26T07:44:57;24.90;22.10
6206;DHT22;3136;48.788;9.772;2023-06-26T07:47:23;25.10;22.70
6206;DHT22;3136;48.788;9.772;2023-06-26T07:49:49;25.10;22.10
6206;DHT22;3136;48.788;9.772;2023-06-26T07:52:15;25.30;22.40
6206;DHT22;3136;48.788;9.772;2023-06-26T07:54:40;25.40;20.80
6206;DHT22;3136;48.788;9.772;2023-06-26T07:57:06;25.50;20.10
6206;DHT22;3136;48.788;9.772;2023-06-26T07:59:32;25.50;18.70
6206;DHT22;3136;48.788;9.772;2023-06-26T08:01:59;25.60;18.30
6206;DHT22;3136;48.788;9.772;2023-06-26T08:04:26;25.70;18.00
6206;DHT22;3136;48.788;9.772;2023-06-26T08:06:53;25.80;17.60
6206;DHT22;3136;48.788;9.772;2023-06-26T08:09:20;25.90;16.80
6206;DHT22;3136;48.788;9.772;2023-06-26T08:11:46;26.00;15.90
6206;DHT22;3136;48.788;9.772;2023-06-26T08:14:12;26.10;16.40
6206;DHT22;3136;48.788;9.772;2023-06-26T08:16:39;26.20;16.90
6206;DHT22;3136;48.788;9.772;2023-06-26T08:19:05;26.20;15.50
6206;DHT22;3136;48.788;9.772;2023-06-26T08:21:30;26.30;14.40
6206;DHT22;3136;48.788;9.772;2023-06-26T08:23:56;26.40;15.00
6206;DHT22;3136;48.788;9.772;2023-06-26T08:26:22;26.60;12.80
6206;DHT22;3136;48.788;9.772;2023-06-26T08:28:47;26.70;12.60
6206;DHT22;3136;48.788;9.772;2023-06-26T08:31:13;26.70;12.60
6206;DHT22;3136;48.788;9.772;2023-06-26T08:33:38;26.80;13.10
6206;DHT22;3136;48.788;9.772;2023-06-26T08:36:04;26.80;11.60
6206;DHT22;3136;48.788;9.772;2023-06-26T08:38:30;27.00;11.00
6206;DHT22;3136;48.788;9.772;2023-06-26T08:40:55;27.10;13.20
6206;DHT22;3136;48.788;9.772;2023-06-26T08:43:21;27.20;10.40
6206;DHT22;3136;48.788;9.772;2023-06-26T08:45:47;27.40;9.90
6206;DHT22;3136;48.788;9.772;2023-06-26T08:48:17;27.50;10.80
6206;DHT22;3136;48.788;9.772;2023-06-26T08:50:44;27.70;9.20
6206;DHT22;3136;48.788;9.772;2023-06-26T08:53:24;27.70;8.60
6206;DHT22;3136;48.788;9.772;2023-06-26T08:55:53;27.80;7.50
6206;DHT22;3136;48.788;9.772;2023-06-26T08:58:20;28.00;6.20
6206;DHT22;3136;48.788;9.772;2023-06-26T09:00:45;28.00;7.70
6206;DHT22;3136;48.788;9.772;2023-06-26T09:03:12;28.00;6.70
6206;DHT22;3136;48.788;9.772;2023-06-26T09:05:38;28.00;4.80
6206;DHT22;3136;48.788;9.772;2023-06-26T09:08:04;28.10;5.00
6206;DHT22;3136;48.788;9.772;2023-06-26T09:10:31;28.20;4.70
6206;DHT22;3136;48.788;9.772;2023-06-26T09:12:57;28.30;4.70
6206;DHT22;3136;48.788;9.772;2023-06-26T09:15:23;28.30;4.90
6206;DHT22;3136;48.788;9.772;2023-06-26T09:17:49;28.60;4.40
6206;DHT22;3136;48.788;9.772;2023-06-26T09:20:15;28.70;3.90
6206;DHT22;3136;48.788;9.772;2023-06-26T09:22:43;28.70;1.60
6206;DHT22;3136;48.788;9.772;2023-06-26T09:25:12;28.80;1.60
6206;DHT22;3136;48.788;9.772;2023-06-26T09:27:38;29.00;2.40
6206;DHT22;3136;48.788;9.772;2023-06-26T09:30:04;29.10;1.80
6206;DHT22;3136;48.788;9.772;2023-06-26T09:32:34;29.10;1.60
6206;DHT22;3136;48.788;9.772;2023-06-26T09:35:02;29.20;1.10
6206;DHT22;3136;48.788;9.772;2023-06-26T09:37:28;29.20;14.70
6206;DHT22;3136;48.788;9.772;2023-06-26T09:39:54;29.30;1.00
6206;DHT22;3136;48.788;9.772;2023-06-26T09:42:20;29.40;1.00
6206;DHT22;3136;48.788;9.772;2023-06-26T09:44:46;29.40;1.00
6206;DHT22;3136;48.788;9.772;2023-06-26T09:47:12;29.60;1.00
6206;DHT22;3136;48.788;9.772;2023-06-26T09:49:42;29.70;1.00
6206;DHT22;3136;48.788;9.772;2023-06-26T09:52:17;29.80;1.00
6206;DHT22;3136;48.788;9.772;2023-06-26T09:54:43;29.90;1.00
6206;DHT22;3136;48.788;9.772;2023-06-26T09:57:18;30.00;1.00
6206;DHT22;3136;48.788;9.772;2023-06-26T09:59:44;30.10;1.00
6206;DHT22;3136;48.788;9.772;2023-06-26T10:02:13;30.20;1.00
6206;DHT22;3136;48.788;9.772;2023-06-26T10:04:39;30.30;1.00
6206;DHT22;3136;48.788;9.772;2023-06-26T10:07:06;30.20;1.00
6206;DHT22;3136;48.788;9.772;2023-06-26T10:09:35;30.30;1.00
6206;DHT22;3136;48.788;9.772;2023-06-26T10:12:11;30.40;1.00
6206;DHT22;3136;48.788;9.772;2023-06-26T10:14:41;30.50;1.00
6206;DHT22;3136;48.788;9.772;2023-06-26T10:17:10;30.50;1.00
6206;DHT22;3136;48.788;9.772;2023-06-26T10:19:38;30.60;1.00
6206;DHT22;3136;48.788;9.772;2023-06-26T10:22:05;30.70;1.00
6206;DHT22;3136;48.788;9.772;2023-06-26T10:24:33;30.70;1.00
6206;DHT22;3136;48.788;9.772;2023-06-26T10:27:32;30.80;1.00
6206;DHT22;3136;48.788;9.772;2023-06-26T10:30:03;30.80;1.00
6206;DHT22;3136;48.788;9.772;2023-06-26T10:32:30;30.80;1.00
6206;DHT22;3136;48.788;9.772;2023-06-26T10:34:57;30.90;9.90
6206;DHT22;3136;48.788;9.772;2023-06-26T10:37:44;31.00;1.00
6206;DHT22;3136;48.788;9.772;2023-06-26T10:40:10;31.00;1.00
6206;DHT22;3136;48.788;9.772;2023-06-26T10:42:37;31.00;1.00
6206;DHT22;3136;48.788;9.772;2023-06-26T10:45:19;30.90;1.00
6206;DHT22;3136;48.788;9.772;2023-06-26T10:47:51;31.10;1.00
6206;DHT22;3136;48.788;9.772;2023-06-26T10:50:29;31.60;1.00
6206;DHT22;3136;48.788;9.772;2023-06-26T10:55:58;32.90;1.00
6206;DHT22;3136;48.788;9.772;2023-06-26T11:03:37;34.00;1.00
6206;DHT22;3136;48.788;9.772;2023-06-26T11:06:13;34.20;1.00
6206;DHT22;3136;48.788;9.772;2023-06-26T11:08:52;34.40;1.00
6206;DHT22;3136;48.788;9.772;2023-06-26T11:11:22;34.50;1.00
6206;DHT22;3136;48.788;9.772;2023-06-26T11:14:08;34.30;1.00
6206;DHT22;3136;48.788;9.772;2023-06-26T11:16:34;34.10;1.00
6206;DHT22;3136;48.788;9.772;2023-06-26T11:19:00;33.80;1.00
6206;DHT22;3136;48.788;9.772;2023-06-26T11:21:26;33.80;1.00
6206;DHT22;3136;48.788;9.772;2023-06-26T11:23:53;33.90;1.00
6206;DHT22;3136;48.788;9.772;2023-06-26T11:26:23;34.10;1.00
6206;DHT22;3136;48.788;9.772;2023-06-26T11:28:52;34.80;1.00
6206;DHT22;3136;48.788;9.772;2023-06-26T11:31:28;35.20;1.00
6206;DHT22;3136;48.788;9.772;2023-06-26T11:33:56;35.40;1.00
6206;DHT22;3136;48.788;9.772;2023-06-26T11:36:28;35.60;1.00
6206;DHT22;3136;48.788;9.772;2023-06-26T11:38:56;35.50;1.00
6206;DHT22;3136;48.788;9.772;2023-06-26T11:41:26;35.10;1.00
6206;DHT22;3136;48.788;9.772;2023-06-26T11:43:52;34.70;1.00
6206;DHT22;3136;48.788;9.772;2023-06-26T11:46:20;33.50;1.00
6206;DHT22;3136;48.788;9.772;2023-06-26T11:48:46;32.60;1.00
6206;DHT22;3136;48.788;9.772;2023-06-26T11:51:15;31.90;1.00
6206;DHT22;3136;48.788;9.772;2023-06-26T11:53:42;31.50;1.00
6206;DHT22;3136;48.788;9.772;2023-06-26T11:56:14;31.60;1.00
6206;DHT22;3136;48.788;9.772;2023-06-26T12:01:27;32.90;1.00
6206;DHT22;3136;48.788;9.772;2023-06-26T12:03:59;33.00;1.00
6206;DHT22;3136;48.788;9.772;2023-06-26T12:06:25;32.90;1.00
6206;DHT22;3136;48.788;9.772;2023-06-26T12:08:51;33.10;1.00
6206;DHT22;3136;48.788;9.772;2023-06-26T12:11:20;32.80;1.00
6206;DHT22;3136;48.788;9.772;2023-06-26T12:13:46;32.70;1.00
6206;DHT22;3136;48.788;9.772;2023-06-26T12:16:12;32.70;1.00
6206;DHT22;3136;48.788;9.772;2023-06-26T12:18:39;32.90;1.00
6206;DHT22;3136;48.788;9.772;2023-06-26T12:21:05;33.20;1.00
6206;DHT22;3136;48.788;9.772;2023-06-26T12:23:39;32.50;1.00
6206;DHT22;3136;48.788;9.772;2023-06-26T12:26:20;33.00;1.00
6206;DHT22;3136;48.788;9.772;2023-06-26T12:28:46;33.70;1.00
6206;DHT22;3136;48.788;9.772;2023-06-26T12:31:15;34.40;1.00
6206;DHT22;3136;48.788;9.772;2023-06-26T12:33:44;34.80;1.00
6206;DHT22;3136;48.788;9.772;2023-06-26T12:36:11;35.20;1.00
6206;DHT22;3136;48.788;9.772;2023-06-26T12:38:37;35.20;1.00
6206;DHT22;3136;48.788;9.772;2023-06-26T12:41:03;34.90;1.00
6206;DHT22;3136;48.788;9.772;2023-06-26T12:43:28;34.90;1.00
6206;DHT22;3136;48.788;9.772;2023-06-26T12:45:55;34.50;1.00
6206;DHT22;3136;48.788;9.772;2023-06-26T12:48:22;34.40;1.00
6206;DHT22;3136;48.788;9.772;2023-06-26T12:51:08;34.10;1.00
6206;DHT22;3136;48.788;9.772;2023-06-26T12:53:36;34.00;1.00
6206;DHT22;3136;48.788;9.772;2023-06-26T12:56:01;34.10;1.00
6206;DHT22;3136;48.788;9.772;2023-06-26T12:58:27;34.50;1.00
6206;DHT22;3136;48.788;9.772;2023-06-26T13:00:53;34.80;1.00
6206;DHT22;3136;48.788;9.772;2023-06-26T13:03:19;34.60;1.00
6206;DHT22;3136;48.788;9.772;2023-06-26T13:05:46;34.40;1.00
6206;DHT22;3136;48.788;9.772;2023-06-26T13:08:12;34.50;1.00
6206;DHT22;3136;48.788;9.772;2023-06-26T13:10:38;34.90;1.00
6206;DHT22;3136;48.788;9.772;2023-06-26T13:13:05;35.00;1.00
6206;DHT22;3136;48.788;9.772;2023-06-26T13:15:30;35.00;1.00
6206;DHT22;3136;48.788;9.772;2023-06-26T13:17:56;34.80;1.00
6206;DHT22;3136;48.788;9.772;2023-06-26T13:20:21;34.50;1.00
6206;DHT22;3136;48.788;9.772;2023-06-26T13:22:47;34.70;1.00
6206;DHT22;3136;48.788;9.772;2023-06-26T13:25:13;34.40;1.00
6206;DHT22;3136;48.788;9.772;2023-06-26T13:27:38;34.70;1.00
6206;DHT22;3136;48.788;9.772;2023-06-26T13:30:04;34.50;1.00
6206;DHT22;3136;48.788;9.772;2023-06-26T13:32:30;35.20;1.00
6206;DHT22;3136;48.788;9.772;2023-06-26T13:34:55;35.50;1.00
6206;DHT22;3136;48.788;9.772;2023-06-26T13:37:23;36.40;1.00
6206;DHT22;3136;48.788;9.772;2023-06-26T13:39:48;36.10;1.00
6206;DHT22;3136;48.788;9.772;2023-06-26T13:42:18;35.40;1.00
6206;DHT22;3136;48.788;9.772;2023-06-26T13:44:44;35.40;1.00
6206;DHT22;3136;48.788;9.772;2023-06-26T13:47:12;35.40;1.00
6206;DHT22;3136;48.788;9.772;2023-06-26T13:49:39;35.30;1.00
6206;DHT22;3136;48.788;9.772;2023-06-26T13:52:05;35.00;1.00
6206;DHT22;3136;48.788;9.772;2023-06-26T13:54:34;35.70;1.00
6206;DHT22;3136;48.788;9.772;2023-06-26T13:57:00;35.40;1.00
6206;DHT22;3136;48.788;9.772;2023-06-26T13:59:28;35.50;1.00
6206;DHT22;3136;48.788;9.772;2023-06-26T14:01:53;34.80;1.00
6206;DHT22;3136;48.788;9.772;2023-06-26T14:04:19;33.80;1.00
6206;DHT22;3136;48.788;9.772;2023-06-26T14:06:44;33.00;1.00
6206;DHT22;3136;48.788;9.772;2023-06-26T14:09:11;32.40;1.00
6206;DHT22;3136;48.788;9.772;2023-06-26T14:11:36;32.00;1.00
6206;DHT22;3136;48.788;9.772;2023-06-26T14:14:02;31.80;1.00
6206;DHT22;3136;48.788;9.772;2023-06-26T14:16:28;31.80;1.00
6206;DHT22;3136;48.788;9.772;2023-06-26T14:18:55;31.80;1.00
6206;DHT22;3136;48.788;9.772;2023-06-26T14:21:21;31.60;1.00
6206;DHT22;3136;48.788;9.772;2023-06-26T14:23:47;31.40;1.00
6206;DHT22;3136;48.788;9.772;2023-06-26T14:26:12;31.30;1.00
6206;DHT22;3136;48.788;9.772;2023-06-26T14:28:38;31.10;1.00
6206;DHT22;3136;48.788;9.772;2023-06-26T14:31:04;30.90;1.00
6206;DHT22;3136;48.788;9.772;2023-06-26T14:33:30;30.80;1.00
6206;DHT22;3136;48.788;9.772;2023-06-26T14:35:56;30.70;1.00
6206;DHT22;3136;48.788;9.772;2023-06-26T14:38:21;30.80;1.00
6206;DHT22;3136;48.788;9.772;2023-06-26T14:40:47;30.70;1.00
6206;DHT22;3136;48.788;9.772;2023-06-26T14:43:12;30.60;2.20
6206;DHT22;3136;48.788;9.772;2023-06-26T14:45:38;30.40;1.00
6206;DHT22;3136;48.788;9.772;2023-06-26T14:48:04;30.20;1.00
6206;DHT22;3136;48.788;9.772;2023-06-26T14:50:29;30.20;1.00
6206;DHT22;3136;48.788;9.772;2023-06-26T14:52:55;30.20;1.00
6206;DHT22;3136;48.788;9.772;2023-06-26T14:55:21;30.20;1.00
6206;DHT22;3136;48.788;9.772;2023-06-26T14:57:46;30.20;1.00
6206;DHT22;3136;48.788;9.772;2023-06-26T15:00:12;30.10;1.00
6206;DHT22;3136;48.788;9.772;2023-06-26T15:02:38;30.00;1.00
6206;DHT22;3136;48.788;9.772;2023-06-26T15:05:04;29.90;1.00
6206;DHT22;3136;48.788;9.772;2023-06-26T15:07:29;29.80;1.00
6206;DHT22;3136;48.788;9.772;2023-06-26T15:09:55;29.90;1.00
6206;DHT22;3136;48.788;9.772;2023-06-26T15:12:20;29.80;1.00
6206;DHT22;3136;48.788;9.772;2023-06-26T15:14:48;29.90;1.00
6206;DHT22;3136;48.788;9.772;2023-06-26T15:17:14;29.90;1.00
6206;DHT22;3136;48.788;9.772;2023-06-26T15:19:40;29.80;1.00
6206;DHT22;3136;48.788;9.772;2023-06-26T15:22:06;29.90;1.00
6206;DHT22;3136;48.788;9.772;2023-06-26T15:24:32;29.70;1.00
6206;DHT22;3136;48.788;9.772;2023-06-26T15:26:57;29.60;1.00
6206;DHT22;3136;48.788;9.772;2023-06-26T15:29:23;29.50;1.00
6206;DHT22;3136;48.788;9.772;2023-06-26T15:31:48;29.40;1.00
6206;DHT22;3136;48.788;9.772;2023-06-26T15:34:14;29.40;1.00
6206;DHT22;3136;48.788;9.772;2023-06-26T15:36:40;29.30;1.00
6206;DHT22;3136;48.788;9.772;2023-06-26T15:39:05;29.20;1.00
6206;DHT22;3136;48.788;9.772;2023-06-26T15:41:31;29.20;1.00
6206;DHT22;3136;48.788;9.772;2023-06-26T15:43:56;29.20;1.00
6206;DHT22;3136;48.788;9.772;2023-06-26T15:46:22;29.00;1.00
6206;DHT22;3136;48.788;9.772;2023-06-26T15:48:48;28.90;1.00
6206;DHT22;3136;48.788;9.772;2023-06-26T15:51:13;28.90;1.00
6206;DHT22;3136;48.788;9.772;2023-06-26T15:53:43;28.80;1.00
6206;DHT22;3136;48.788;9.772;2023-06-26T15:56:11;28.90;1.00
6206;DHT22;3136;48.788;9.772;2023-06-26T15:58:37;28.90;1.00
6206;DHT22;3136;48.788;9.772;2023-06-26T16:01:08;28.90;1.00
6206;DHT22;3136;48.788;9.772;2023-06-26T16:03:34;28.80;1.00
6206;DHT22;3136;48.788;9.772;2023-06-26T16:06:00;28.60;1.00
6206;DHT22;3136;48.788;9.772;2023-06-26T16:08:25;28.50;1.00
6206;DHT22;3136;48.788;9.772;2023-06-26T16:10:53;28.40;1.00
6206;DHT22;3136;48.788;9.772;2023-06-26T16:13:18;28.40;4.10
6206;DHT22;3136;48.788;9.772;2023-06-26T16:15:47;28.30;1.00
6206;DHT22;3136;48.788;9.772;2023-06-26T16:18:12;28.40;1.00